Terminal Aerodrome Forecast
Issued by NWS

Home | Current Version | Previous Version | Text Only | Print | Product List | Glossary On
Versions: 1 2 3 4 5 6 7 8 9 10 11 12 13 14 15 16 17
000
FTUS45 KABQ 180700 AAB
TAFFMN
TAF AMD
KFMN 180710Z 1807/1906 VRB05KT 3SM -SN BR OVC010
      TEMPO 1807/1810 3/4SM -SN BR OVC003
     FM181100 VRB03KT P6SM OVC025
     FM181500 27006KT P6SM BKN040
     FM181800 29011KT P6SM BKN050
     FM182100 29021G31KT P6SM BKN090
     FM190200 33009KT P6SM SCT120=

USA.gov is the U.S. government's official web portal to all federal, state and local government web resources and services.